Time;durP1;ratioP1;P1;durP2;ratioP2;P2;SDS_P1;SDS_P2;PMS_P1;PMS_P2;Temp;Humidity;BMP_temperature;BMP_pressure;BME280_temperature;BME280_humidity;BME280_pressure;Samples;Min_cycle;Max_cycle;Signal;HPM_P1;HPM_P2
2023/12/11 00:00:33;;;;;;;11.50;3.47;;;;;;;;;;5073938;28;20535;-60
2023/12/11 00:03:00;;;;;;;6.03;2.57;;;;;;;;;;5073897;28;20443;-60
2023/12/11 00:05:26;;;;;;;8.10;3.10;;;;;;;;;;5073509;28;20483;-59
2023/12/11 00:07:53;;;;;;;10.60;2.53;;;;;;;;;;5073672;28;20443;-60
2023/12/11 00:10:20;;;;;;;11.37;2.67;;;;;;;;;;5073896;28;20534;-60
2023/12/11 00:12:48;;;;;;;6.70;2.53;;;;;;;;;;5073542;28;20528;-59
2023/12/11 00:15:15;;;;;;;8.83;3.00;;;;;;;;;;5073420;28;20440;-59
2023/12/11 00:17:43;;;;;;;6.80;2.70;;;;;;;;;;5073602;28;20450;-60
2023/12/11 00:20:11;;;;;;;6.87;2.23;;;;;;;;;;5073544;28;20501;-60
2023/12/11 00:22:38;;;;;;;7.63;2.13;;;;;;;;;;5073412;28;20439;-60
2023/12/11 00:25:05;;;;;;;9.03;2.50;;;;;;;;;;5073415;28;20483;-60
2023/12/11 00:27:32;;;;;;;7.93;2.23;;;;;;;;;;5073186;28;20530;-59
2023/12/11 00:30:01;;;;;;;5.90;1.90;;;;;;;;;;5073623;28;20448;-59
2023/12/11 00:32:28;;;;;;;11.13;2.67;;;;;;;;;;5073377;28;20477;-60
2023/12/11 00:34:55;;;;;;;5.73;2.70;;;;;;;;;;5073283;28;20453;-59
2023/12/11 00:37:21;;;;;;;7.27;2.70;;;;;;;;;;5073239;28;20810;-60
2023/12/11 00:39:48;;;;;;;11.30;2.97;;;;;;;;;;5073109;28;20443;-60
2023/12/11 00:42:15;;;;;;;12.60;3.73;;;;;;;;;;5072962;28;20450;-60
2023/12/11 00:44:42;;;;;;;9.23;2.50;;;;;;;;;;5073109;28;20482;-60
2023/12/11 00:47:10;;;;;;;11.00;3.17;;;;;;;;;;5073132;28;20450;-60
2023/12/11 00:49:37;;;;;;;9.63;2.63;;;;;;;;;;5073358;28;20451;-60
2023/12/11 00:52:04;;;;;;;7.03;3.10;;;;;;;;;;5073026;28;20806;-60
2023/12/11 00:54:31;;;;;;;5.73;3.07;;;;;;;;;;5072922;28;20449;-60
2023/12/11 00:56:58;;;;;;;7.67;2.60;;;;;;;;;;5072915;28;20791;-59
2023/12/11 00:59:25;;;;;;;7.50;2.63;;;;;;;;;;5073006;28;20450;-59
2023/12/11 01:01:52;;;;;;;14.53;2.83;;;;;;;;;;5072953;28;20445;-60
2023/12/11 01:04:21;;;;;;;6.27;2.37;;;;;;;;;;5072821;28;20520;-60
2023/12/11 01:06:47;;;;;;;8.33;2.63;;;;;;;;;;5072867;28;20443;-59
2023/12/11 01:09:14;;;;;;;7.73;2.90;;;;;;;;;;5072732;28;20454;-59
2023/12/11 01:11:41;;;;;;;5.50;2.27;;;;;;;;;;5073000;28;20458;-60
2023/12/11 01:14:08;;;;;;;5.90;2.30;;;;;;;;;;5072895;28;20788;-60
2023/12/11 01:16:35;;;;;;;7.93;2.13;;;;;;;;;;5072772;28;20443;-60
2023/12/11 01:19:02;;;;;;;5.90;2.30;;;;;;;;;;5072828;28;20868;-60
2023/12/11 01:21:30;;;;;;;3.77;2.23;;;;;;;;;;5072712;28;20534;-60
2023/12/11 01:23:57;;;;;;;7.20;2.10;;;;;;;;;;5072514;28;20547;-60
2023/12/11 01:26:24;;;;;;;6.20;2.50;;;;;;;;;;5072866;28;20538;-60
2023/12/11 01:28:51;;;;;;;4.30;1.90;;;;;;;;;;5072805;28;20531;-60
2023/12/11 01:31:18;;;;;;;7.47;2.43;;;;;;;;;;5072695;28;20477;-60
2023/12/11 01:33:45;;;;;;;8.10;2.27;;;;;;;;;;5072596;28;20435;-60
2023/12/11 01:36:12;;;;;;;6.90;2.30;;;;;;;;;;5072554;28;20875;-60
2023/12/11 01:38:40;;;;;;;4.77;1.40;;;;;;;;;;5072755;28;20912;-60
2023/12/11 01:41:07;;;;;;;8.73;2.20;;;;;;;;;;5072722;28;20530;-60
2023/12/11 01:43:34;;;;;;;7.20;1.80;;;;;;;;;;5072654;28;20550;-60
2023/12/11 01:46:03;;;;;;;5.30;1.93;;;;;;;;;;5072531;28;20479;-60
2023/12/11 01:48:30;;;;;;;5.63;2.37;;;;;;;;;;5072519;28;20535;-60
2023/12/11 01:50:57;;;;;;;5.27;2.00;;;;;;;;;;5072640;28;20496;-60
2023/12/11 01:53:24;;;;;;;4.30;2.70;;;;;;;;;;5072366;28;21004;-60
2023/12/11 01:55:52;;;;;;;5.90;1.90;;;;;;;;;;5072450;28;20476;-60
2023/12/11 01:58:19;;;;;;;5.90;1.83;;;;;;;;;;5072503;28;20451;-60
2023/12/11 02:00:46;;;;;;;5.50;1.50;;;;;;;;;;5072368;28;20522;-60
2023/12/11 02:03:13;;;;;;;4.43;1.73;;;;;;;;;;5072314;28;20486;-60
2023/12/11 02:05:42;;;;;;;4.77;1.93;;;;;;;;;;5072163;28;20570;-60
2023/12/11 02:08:09;;;;;;;3.43;1.30;;;;;;;;;;5072412;28;20439;-60
2023/12/11 02:10:36;;;;;;;4.70;1.63;;;;;;;;;;5073994;28;20443;-60
2023/12/11 02:13:05;;;;;;;2.50;1.60;;;;;;;;;;5075785;28;20938;-60
2023/12/11 02:15:37;;;;;;;5.40;1.90;;;;;;;;;;5075786;28;20439;-60
2023/12/11 02:18:04;;;;;;;10.37;2.73;;;;;;;;;;5075676;28;20534;-60
2023/12/11 02:20:32;;;;;;;9.00;2.30;;;;;;;;;;5075861;28;20475;-59
2023/12/11 02:22:59;;;;;;;5.20;2.00;;;;;;;;;;5075623;28;20904;-59
2023/12/11 02:25:27;;;;;;;6.93;2.17;;;;;;;;;;5075568;28;20838;-60
2023/12/11 02:27:55;;;;;;;3.83;1.60;;;;;;;;;;5075526;28;21023;-59
2023/12/11 02:30:22;;;;;;;5.73;1.77;;;;;;;;;;5075400;28;20439;-59
2023/12/11 02:32:49;;;;;;;7.50;1.90;;;;;;;;;;5075686;28;20531;-60
2023/12/11 02:35:15;;;;;;;6.43;2.37;;;;;;;;;;5075642;28;20641;-59
2023/12/11 02:37:42;;;;;;;3.33;1.90;;;;;;;;;;5075479;28;20527;-60
2023/12/11 02:40:10;;;;;;;9.87;2.23;;;;;;;;;;5075440;28;20498;-59
2023/12/11 02:42:36;;;;;;;7.70;1.83;;;;;;;;;;5075318;28;20533;-59
2023/12/11 02:45:05;;;;;;;6.13;1.60;;;;;;;;;;5075075;28;20511;-59
2023/12/11 02:47:32;;;;;;;6.70;1.80;;;;;;;;;;5075415;28;20443;-59
2023/12/11 02:49:59;;;;;;;5.60;2.40;;;;;;;;;;5075315;28;20802;-59
2023/12/11 02:52:26;;;;;;;6.40;2.53;;;;;;;;;;5075207;28;20538;-59
2023/12/11 02:54:53;;;;;;;5.00;2.07;;;;;;;;;;5074903;28;20910;-59
2023/12/11 02:57:20;;;;;;;4.67;1.60;;;;;;;;;;5075047;28;20450;-59
2023/12/11 02:59:47;;;;;;;12.47;2.30;;;;;;;;;;5074943;28;20536;-60
2023/12/11 03:02:15;;;;;;;6.87;1.73;;;;;;;;;;5075100;28;20551;-59
2023/12/11 03:04:42;;;;;;;2.77;1.43;;;;;;;;;;5075128;28;20534;-59
2023/12/11 03:07:09;;;;;;;10.17;2.43;;;;;;;;;;5074902;28;20998;-60
2023/12/11 03:09:36;;;;;;;4.33;2.10;;;;;;;;;;5074857;28;20446;-60
2023/12/11 03:12:02;;;;;;;4.83;1.80;;;;;;;;;;5074691;28;20953;-60
2023/12/11 03:14:29;;;;;;;10.90;1.90;;;;;;;;;;5074682;28;20435;-60
2023/12/11 03:16:56;;;;;;;3.77;1.60;;;;;;;;;;5074588;28;20985;-60
2023/12/11 03:19:26;;;;;;;4.00;2.00;;;;;;;;;;5074682;28;20446;-59
2023/12/11 03:21:55;;;;;;;2.67;1.80;;;;;;;;;;5074436;28;20486;-60
2023/12/11 03:24:22;;;;;;;5.13;2.10;;;;;;;;;;5074633;28;20487;-60
2023/12/11 03:26:49;;;;;;;4.93;2.03;;;;;;;;;;5074359;28;20532;-59
2023/12/11 03:29:16;;;;;;;4.10;2.50;;;;;;;;;;5074639;28;20538;-60
2023/12/11 03:31:43;;;;;;;5.67;1.63;;;;;;;;;;5074517;28;20447;-59
2023/12/11 03:34:10;;;;;;;2.27;1.40;;;;;;;;;;5074218;28;20877;-59
2023/12/11 03:36:38;;;;;;;5.47;1.97;;;;;;;;;;5074538;28;20530;-60
2023/12/11 03:39:07;;;;;;;9.20;4.07;;;;;;;;;;5074182;28;20534;-60
2023/12/11 03:41:34;;;;;;;9.07;5.07;;;;;;;;;;5074122;28;20503;-60
2023/12/11 03:44:01;;;;;;;9.70;2.33;;;;;;;;;;5074290;28;20538;-60
2023/12/11 03:46:28;;;;;;;4.20;2.00;;;;;;;;;;5074104;28;20506;-60
2023/12/11 03:48:55;;;;;;;9.27;2.27;;;;;;;;;;5074089;28;20946;-59
2023/12/11 03:51:22;;;;;;;5.63;2.13;;;;;;;;;;5074248;28;20539;-59
2023/12/11 03:53:50;;;;;;;9.20;2.10;;;;;;;;;;5073807;28;20473;-60
2023/12/11 03:56:17;;;;;;;7.97;2.17;;;;;;;;;;5073752;28;20471;-60
2023/12/11 03:58:44;;;;;;;3.40;1.70;;;;;;;;;;5073965;28;20527;-60
2023/12/11 04:01:11;;;;;;;4.00;2.10;;;;;;;;;;5073882;28;20542;-60
2023/12/11 04:03:38;;;;;;;8.20;2.47;;;;;;;;;;5073779;28;20452;-60
2023/12/11 04:06:05;;;;;;;5.53;1.63;;;;;;;;;;5073485;28;20475;-60
2023/12/11 04:08:32;;;;;;;7.93;2.00;;;;;;;;;;5073545;28;20436;-60
2023/12/11 04:11:01;;;;;;;4.83;1.47;;;;;;;;;;5073761;28;20461;-60
2023/12/11 04:13:27;;;;;;;6.10;1.97;;;;;;;;;;5073660;28;20449;-60
2023/12/11 04:15:54;;;;;;;3.73;1.70;;;;;;;;;;5073640;28;20479;-60
2023/12/11 04:18:21;;;;;;;5.57;2.20;;;;;;;;;;5073422;28;20474;-60
2023/12/11 04:20:48;;;;;;;5.23;1.63;;;;;;;;;;5073344;28;21030;-60
2023/12/11 04:23:15;;;;;;;4.87;1.73;;;;;;;;;;5073276;28;20442;-60
2023/12/11 04:25:42;;;;;;;9.00;2.30;;;;;;;;;;5073436;28;20483;-60
2023/12/11 04:28:10;;;;;;;4.57;1.70;;;;;;;;;;5073419;28;20530;-60
2023/12/11 04:30:37;;;;;;;7.70;2.43;;;;;;;;;;5073306;28;20439;-60
2023/12/11 04:33:04;;;;;;;5.70;2.00;;;;;;;;;;5072662;28;20447;-60
2023/12/11 04:35:31;;;;;;;5.90;2.13;;;;;;;;;;5073103;28;20555;-60
2023/12/11 04:37:58;;;;;;;8.63;2.20;;;;;;;;;;5073395;28;20849;-60
2023/12/11 04:40:26;;;;;;;5.57;2.87;;;;;;;;;;5073245;28;20445;-60
2023/12/11 04:42:53;;;;;;;11.00;2.80;;;;;;;;;;5073059;28;20957;-60
2023/12/11 04:45:22;;;;;;;6.80;2.57;;;;;;;;;;5073078;28;20819;-60
2023/12/11 04:47:49;;;;;;;5.47;2.10;;;;;;;;;;5073071;28;20482;-60
2023/12/11 04:50:16;;;;;;;3.73;1.80;;;;;;;;;;5072913;28;20546;-60
2023/12/11 04:52:43;;;;;;;4.83;1.70;;;;;;;;;;5073164;28;20450;-60
2023/12/11 04:55:10;;;;;;;6.20;2.00;;;;;;;;;;5072880;28;20558;-60
2023/12/11 04:57:37;;;;;;;6.20;2.13;;;;;;;;;;5072974;28;20443;-60
2023/12/11 05:00:04;;;;;;;10.97;2.30;;;;;;;;;;5072956;28;20796;-60
2023/12/11 05:02:33;;;;;;;4.80;1.80;;;;;;;;;;5072871;28;20447;-59
2023/12/11 05:05:00;;;;;;;11.80;2.90;;;;;;;;;;5073009;28;20450;-60
2023/12/11 05:07:26;;;;;;;6.17;2.10;;;;;;;;;;5072700;28;20486;-60
2023/12/11 05:09:53;;;;;;;5.57;2.33;;;;;;;;;;5072893;28;20537;-59
2023/12/11 05:12:20;;;;;;;4.80;1.80;;;;;;;;;;5072808;28;20534;-59
2023/12/11 05:14:47;;;;;;;7.23;2.47;;;;;;;;;;5072714;28;21008;-60
2023/12/11 05:17:14;;;;;;;6.57;2.03;;;;;;;;;;5072653;28;20534;-59
2023/12/11 05:19:42;;;;;;;11.43;2.20;;;;;;;;;;5073207;28;20476;-60
2023/12/11 05:22:09;;;;;;;6.60;1.70;;;;;;;;;;5072884;28;20448;-59
2023/12/11 05:24:36;;;;;;;6.97;1.90;;;;;;;;;;5072619;28;20909;-60
2023/12/11 05:27:03;;;;;;;4.10;2.50;;;;;;;;;;5072657;28;20573;-60
2023/12/11 05:29:30;;;;;;;8.43;2.43;;;;;;;;;;5072613;28;20538;-60
2023/12/11 05:31:57;;;;;;;6.90;2.50;;;;;;;;;;5072562;28;20994;-59
2023/12/11 05:34:24;;;;;;;5.07;2.07;;;;;;;;;;5073016;28;20539;-59
2023/12/11 05:36:52;;;;;;;5.23;2.03;;;;;;;;;;5072694;28;20534;-59
2023/12/11 05:39:19;;;;;;;5.70;1.93;;;;;;;;;;5072549;28;20501;-60
2023/12/11 05:41:46;;;;;;;9.77;2.20;;;;;;;;;;5072434;28;20447;-60
2023/12/11 05:44:13;;;;;;;3.73;1.80;;;;;;;;;;5072714;28;20443;-60
2023/12/11 05:46:40;;;;;;;8.40;3.00;;;;;;;;;;5076343;28;20569;-59
2023/12/11 05:49:07;;;;;;;7.70;2.17;;;;;;;;;;5076456;28;20526;-60
2023/12/11 05:51:34;;;;;;;6.30;2.23;;;;;;;;;;5076306;28;20469;-59
2023/12/11 05:54:02;;;;;;;3.50;2.30;;;;;;;;;;5076152;28;20535;-59
2023/12/11 05:56:30;;;;;;;3.97;2.03;;;;;;;;;;5075993;28;20475;-59
2023/12/11 05:58:57;;;;;;;4.83;2.53;;;;;;;;;;5075979;28;20486;-59
2023/12/11 06:01:25;;;;;;;5.80;1.90;;;;;;;;;;5076149;28;20550;-60
2023/12/11 06:03:51;;;;;;;7.20;2.00;;;;;;;;;;5075872;28;20934;-60
2023/12/11 06:06:19;;;;;;;9.90;2.00;;;;;;;;;;5075849;28;20522;-60
2023/12/11 06:08:46;;;;;;;4.23;1.83;;;;;;;;;;5075845;28;20539;-60
2023/12/11 06:11:15;;;;;;;5.07;2.87;;;;;;;;;;5075748;28;20498;-59
2023/12/11 06:13:41;;;;;;;5.47;1.90;;;;;;;;;;5076013;28;20486;-59
2023/12/11 06:16:10;;;;;;;5.07;2.40;;;;;;;;;;5075884;28;20453;-60
2023/12/11 06:18:37;;;;;;;9.97;3.37;;;;;;;;;;5075709;28;20490;-60
2023/12/11 06:21:04;;;;;;;4.33;1.80;;;;;;;;;;5075558;28;20449;-60
2023/12/11 06:23:31;;;;;;;8.63;1.73;;;;;;;;;;5075519;28;20535;-60
2023/12/11 06:25:58;;;;;;;7.27;1.93;;;;;;;;;;5075345;28;20466;-60
2023/12/11 06:28:27;;;;;;;9.13;2.60;;;;;;;;;;5075843;28;20534;-60
2023/12/11 06:30:53;;;;;;;6.33;2.40;;;;;;;;;;5075569;28;20447;-60
2023/12/11 06:33:20;;;;;;;6.27;1.73;;;;;;;;;;5075386;28;20447;-60
2023/12/11 06:35:47;;;;;;;6.63;1.83;;;;;;;;;;5075405;28;20807;-60
2023/12/11 06:38:14;;;;;;;2.67;1.60;;;;;;;;;;5075288;28;20443;-60
2023/12/11 06:40:41;;;;;;;5.47;1.93;;;;;;;;;;5075222;28;20532;-60
2023/12/11 06:43:08;;;;;;;5.63;2.27;;;;;;;;;;5075407;28;20443;-59
2023/12/11 06:45:36;;;;;;;7.20;2.83;;;;;;;;;;5075185;28;20479;-59
2023/12/11 06:48:04;;;;;;;3.10;1.60;;;;;;;;;;5075254;28;20505;-59
2023/12/11 06:50:30;;;;;;;4.40;2.00;;;;;;;;;;5075010;28;20439;-60
2023/12/11 06:52:57;;;;;;;5.43;2.20;;;;;;;;;;5074969;28;20530;-60
2023/12/11 06:55:25;;;;;;;3.67;1.63;;;;;;;;;;5074529;28;20818;-59
2023/12/11 06:57:52;;;;;;;4.37;2.00;;;;;;;;;;5074862;28;20453;-59
2023/12/11 07:00:19;;;;;;;7.33;2.47;;;;;;;;;;5074901;28;20534;-60
2023/12/11 07:02:47;;;;;;;2.17;1.70;;;;;;;;;;5074966;28;20444;-60
2023/12/11 07:05:14;;;;;;;4.07;2.23;;;;;;;;;;5074881;28;21030;-60
2023/12/11 07:07:41;;;;;;;5.63;2.30;;;;;;;;;;5074469;28;20483;-59
2023/12/11 07:10:09;;;;;;;6.60;2.53;;;;;;;;;;5074926;28;20450;-60
2023/12/11 07:12:38;;;;;;;4.70;1.90;;;;;;;;;;5074821;28;20531;-59
2023/12/11 07:15:06;;;;;;;11.37;2.57;;;;;;;;;;5074821;28;20475;-60
2023/12/11 07:17:33;;;;;;;2.53;1.30;;;;;;;;;;5074640;28;20968;-60
2023/12/11 07:20:02;;;;;;;11.80;2.63;;;;;;;;;;5074425;28;21048;-59
2023/12/11 07:22:30;;;;;;;5.67;2.07;;;;;;;;;;5074540;28;20942;-60
2023/12/11 07:24:57;;;;;;;8.17;2.00;;;;;;;;;;5074560;28;20443;-60
2023/12/11 07:27:24;;;;;;;7.50;2.13;;;;;;;;;;5074473;28;20483;-60
2023/12/11 07:29:51;;;;;;;7.60;2.17;;;;;;;;;;5074367;28;20447;-60
2023/12/11 07:32:18;;;;;;;6.87;1.97;;;;;;;;;;5074103;28;20879;-60
2023/12/11 07:34:45;;;;;;;6.57;2.23;;;;;;;;;;5074095;28;20534;-60
2023/12/11 07:37:13;;;;;;;5.73;2.50;;;;;;;;;;5074387;28;20449;-60
2023/12/11 07:39:40;;;;;;;14.53;2.67;;;;;;;;;;5074324;28;20998;-60
2023/12/11 07:42:07;;;;;;;4.90;1.70;;;;;;;;;;5074184;28;20534;-60
2023/12/11 07:44:34;;;;;;;7.83;2.23;;;;;;;;;;5074307;28;20531;-60
2023/12/11 07:47:01;;;;;;;9.60;2.40;;;;;;;;;;5073844;28;20486;-60
2023/12/11 07:49:28;;;;;;;8.43;2.20;;;;;;;;;;5073828;28;20447;-60
2023/12/11 07:51:55;;;;;;;4.60;1.70;;;;;;;;;;5074070;28;20443;-60
2023/12/11 07:54:23;;;;;;;4.83;2.20;;;;;;;;;;5073772;28;20451;-60
2023/12/11 07:56:50;;;;;;;4.73;1.27;;;;;;;;;;5073939;28;21029;-60
2023/12/11 07:59:17;;;;;;;5.60;2.77;;;;;;;;;;5073696;28;20443;-60
2023/12/11 08:01:45;;;;;;;8.00;2.60;;;;;;;;;;5073590;28;20444;-60
2023/12/11 08:04:12;;;;;;;7.63;4.23;;;;;;;;;;5073814;28;20443;-59
2023/12/11 08:06:41;;;;;;;6.53;2.63;;;;;;;;;;5073604;28;20467;-60
2023/12/11 08:09:08;;;;;;;9.87;4.70;;;;;;;;;;5072635;28;20855;-59
2023/12/11 08:11:37;;;;;;;8.73;2.60;;;;;;;;;;5073242;28;20448;-60
2023/12/11 08:14:04;;;;;;;4.93;2.07;;;;;;;;;;5073106;28;20530;-60
2023/12/11 08:16:31;;;;;;;4.97;2.47;;;;;;;;;;5073205;28;20461;-60
2023/12/11 08:18:58;;;;;;;12.17;2.10;;;;;;;;;;5073410;28;20439;-61
2023/12/11 08:21:25;;;;;;;5.40;2.10;;;;;;;;;;5073375;28;20443;-62
2023/12/11 08:23:52;;;;;;;12.07;2.20;;;;;;;;;;5073434;28;20528;-60
2023/12/11 08:26:20;;;;;;;3.70;1.70;;;;;;;;;;5073345;28;20446;-61
2023/12/11 08:28:49;;;;;;;5.53;1.40;;;;;;;;;;5073266;28;20439;-61
2023/12/11 08:31:16;;;;;;;5.13;1.73;;;;;;;;;;5073554;28;20443;-60
2023/12/11 08:33:43;;;;;;;7.97;2.30;;;;;;;;;;5073305;28;20450;-60
2023/12/11 08:36:10;;;;;;;2.90;1.50;;;;;;;;;;5073221;28;20449;-61
2023/12/11 08:38:37;;;;;;;7.50;2.70;;;;;;;;;;5072163;28;20446;-63
2023/12/11 08:41:04;;;;;;;7.20;1.67;;;;;;;;;;5072843;28;20538;-60
2023/12/11 08:43:31;;;;;;;9.63;2.10;;;;;;;;;;5073035;28;20795;-60
2023/12/11 08:45:59;;;;;;;8.70;1.80;;;;;;;;;;5073349;28;20538;-62
2023/12/11 08:48:26;;;;;;;6.77;1.77;;;;;;;;;;5072958;28;20479;-62
2023/12/11 08:50:53;;;;;;;6.23;1.70;;;;;;;;;;5073041;28;20803;-62
2023/12/11 08:53:20;;;;;;;9.50;2.03;;;;;;;;;;5072822;28;20447;-62
2023/12/11 08:55:47;;;;;;;8.40;2.77;;;;;;;;;;5072710;28;20479;-62
2023/12/11 08:58:15;;;;;;;9.43;2.30;;;;;;;;;;5072867;28;20478;-66
2023/12/11 09:00:41;;;;;;;7.13;2.10;;;;;;;;;;5072898;28;20440;-61
2023/12/11 09:03:10;;;;;;;4.53;2.20;;;;;;;;;;5072907;28;20517;-62
2023/12/11 09:05:37;;;;;;;6.73;1.90;;;;;;;;;;5072804;28;20451;-61
2023/12/11 09:08:04;;;;;;;4.97;1.90;;;;;;;;;;5072636;28;20981;-60
2023/12/11 09:10:31;;;;;;;7.07;2.00;;;;;;;;;;5072668;28;20799;-61
2023/12/11 09:12:59;;;;;;;8.07;2.47;;;;;;;;;;5072451;28;20530;-60
2023/12/11 09:15:26;;;;;;;6.27;2.40;;;;;;;;;;5072811;28;20486;-60
2023/12/11 09:17:53;;;;;;;8.73;2.07;;;;;;;;;;5072736;28;20446;-61
2023/12/11 09:20:21;;;;;;;5.63;2.27;;;;;;;;;;5075973;28;20443;-61
2023/12/11 09:22:48;;;;;;;7.60;1.70;;;;;;;;;;5077016;28;20439;-60
2023/12/11 09:25:15;;;;;;;9.47;2.90;;;;;;;;;;5076723;28;20817;-60
2023/12/11 09:27:42;;;;;;;9.33;3.20;;;;;;;;;;5076729;28;20489;-63
2023/12/11 09:30:10;;;;;;;2.67;1.90;;;;;;;;;;5076820;28;20533;-62
2023/12/11 09:32:37;;;;;;;6.13;2.00;;;;;;;;;;5076642;28;20454;-62
2023/12/11 09:35:04;;;;;;;7.33;1.83;;;;;;;;;;5076599;28;20443;-60
2023/12/11 09:37:32;;;;;;;4.70;1.70;;;;;;;;;;5076649;28;20446;-61
2023/12/11 09:39:59;;;;;;;8.20;2.00;;;;;;;;;;5076363;28;20814;-61
2023/12/11 09:42:27;;;;;;;4.93;1.70;;;;;;;;;;5076601;28;20455;-60
2023/12/11 09:44:54;;;;;;;3.27;2.50;;;;;;;;;;5076711;28;20525;-61
2023/12/11 09:47:23;;;;;;;6.37;2.33;;;;;;;;;;5076281;28;20475;-61
2023/12/11 09:49:50;;;;;;;10.00;2.53;;;;;;;;;;5076152;28;20450;-60
2023/12/11 09:52:17;;;;;;;6.80;1.67;;;;;;;;;;5076109;28;20443;-63
2023/12/11 09:54:45;;;;;;;5.60;1.67;;;;;;;;;;5075691;28;20557;-56
2023/12/11 09:57:13;;;;;;;5.33;1.73;;;;;;;;;;5076257;28;20494;-61
2023/12/11 09:59:40;;;;;;;6.30;2.33;;;;;;;;;;5076317;28;20447;-61
2023/12/11 10:02:08;;;;;;;6.80;1.53;;;;;;;;;;5076012;28;20994;-60
2023/12/11 10:04:35;;;;;;;3.63;1.63;;;;;;;;;;5075889;28;20885;-62
2023/12/11 10:07:02;;;;;;;6.90;1.80;;;;;;;;;;5076055;28;20475;-61
2023/12/11 10:09:29;;;;;;;4.63;2.13;;;;;;;;;;5076025;28;20939;-61
2023/12/11 10:12:02;;;;;;;5.37;2.50;;;;;;;;;;5075813;28;20934;-61
2023/12/11 10:14:30;;;;;;;4.33;2.50;;;;;;;;;;5075862;28;20493;-60
2023/12/11 10:16:57;;;;;;;7.47;2.33;;;;;;;;;;5075636;28;20541;-61
2023/12/11 10:19:31;;;;;;;8.60;3.47;;;;;;;;;;5075477;28;20443;-61
2023/12/11 10:21:58;;;;;;;10.50;3.33;;;;;;;;;;5075787;28;20470;-62
2023/12/11 10:24:25;;;;;;;8.33;2.60;;;;;;;;;;5075646;28;20443;-61
2023/12/11 10:26:55;;;;;;;5.27;2.93;;;;;;;;;;5075418;28;20532;-61
2023/12/11 10:29:24;;;;;;;7.73;2.27;;;;;;;;;;5075617;28;20440;-62
2023/12/11 10:31:52;;;;;;;5.63;2.30;;;;;;;;;;5074361;28;21002;-64
2023/12/11 10:34:19;;;;;;;9.30;3.00;;;;;;;;;;5075538;28;20534;-60
2023/12/11 10:36:50;;;;;;;10.30;2.50;;;;;;;;;;5075417;28;20871;-61
2023/12/11 10:39:17;;;;;;;8.30;2.20;;;;;;;;;;5075740;28;20443;-62
2023/12/11 10:41:45;;;;;;;9.53;2.33;;;;;;;;;;5075292;28;20475;-61
2023/12/11 10:44:21;;;;;;;5.30;1.80;;;;;;;;;;5075133;28;20439;-62
2023/12/11 10:46:49;;;;;;;12.13;2.67;;;;;;;;;;5075354;28;20526;-60
2023/12/11 10:49:17;;;;;;;4.07;1.63;;;;;;;;;;5075379;28;20483;-59
2023/12/11 10:51:43;;;;;;;8.07;2.40;;;;;;;;;;5075283;28;20488;-61
2023/12/11 10:54:10;;;;;;;9.83;2.20;;;;;;;;;;5075094;28;20546;-60
2023/12/11 10:56:37;;;;;;;10.20;2.30;;;;;;;;;;5074960;28;20447;-60
2023/12/11 10:59:04;;;;;;;10.53;2.27;;;;;;;;;;5075127;28;20530;-60
2023/12/11 11:01:31;;;;;;;3.47;2.03;;;;;;;;;;5075108;28;20435;-60
2023/12/11 11:04:01;;;;;;;8.60;2.97;;;;;;;;;;5074759;28;20534;-60
2023/12/11 11:06:31;;;;;;;9.03;2.40;;;;;;;;;;5074719;28;20450;-60
2023/12/11 11:09:02;;;;;;;6.47;2.53;;;;;;;;;;5074795;28;20518;-60
2023/12/11 11:11:32;;;;;;;4.70;2.70;;;;;;;;;;5074656;28;20448;-60
2023/12/11 11:14:11;;;;;;;7.03;1.87;;;;;;;;;;5074955;28;20485;-60
2023/12/11 11:16:53;;;;;;;4.13;1.63;;;;;;;;;;5074765;28;20447;-60
2023/12/11 11:19:21;;;;;;;5.60;2.30;;;;;;;;;;5074970;28;20451;-60
2023/12/11 11:22:19;;;;;;;6.93;2.10;;;;;;;;;;5074490;28;20863;-60
2023/12/11 11:24:45;;;;;;;5.50;2.13;;;;;;;;;;5074626;28;20530;-60
2023/12/11 11:27:27;;;;;;;7.60;1.87;;;;;;;;;;5074289;28;21022;-60
2023/12/11 11:29:54;;;;;;;10.93;2.20;;;;;;;;;;5074404;28;20450;-60
2023/12/11 11:32:21;;;;;;;4.70;2.50;;;;;;;;;;5074297;28;20534;-60
2023/12/11 11:34:49;;;;;;;4.43;1.93;;;;;;;;;;5074240;28;20538;-60
2023/12/11 11:37:18;;;;;;;5.07;2.50;;;;;;;;;;5074350;28;20447;-60
2023/12/11 11:39:58;;;;;;;11.83;2.87;;;;;;;;;;5074173;28;20479;-60
2023/12/11 11:42:25;;;;;;;6.73;1.87;;;;;;;;;;5074047;28;20447;-60
2023/12/11 11:44:56;;;;;;;12.90;2.53;;;;;;;;;;5074254;28;20530;-61
2023/12/11 11:47:23;;;;;;;2.77;1.93;;;;;;;;;;5074059;28;20448;-61
2023/12/11 11:49:51;;;;;;;4.33;2.03;;;;;;;;;;5073921;28;20447;-61
2023/12/11 11:52:22;;;;;;;6.40;1.87;;;;;;;;;;5074010;28;20856;-61
2023/12/11 11:54:51;;;;;;;11.50;2.30;;;;;;;;;;5073617;28;20482;-62
2023/12/11 11:57:18;;;;;;;4.40;2.20;;;;;;;;;;5073973;28;20435;-61
2023/12/11 11:59:45;;;;;;;4.70;1.97;;;;;;;;;;5073912;28;20480;-61
2023/12/11 12:02:12;;;;;;;6.73;1.80;;;;;;;;;;5073740;28;20496;-61
2023/12/11 12:04:39;;;;;;;4.07;1.63;;;;;;;;;;5073687;28;20446;-61
2023/12/11 12:07:08;;;;;;;3.93;1.70;;;;;;;;;;5073801;28;21006;-60
2023/12/11 12:09:35;;;;;;;6.57;2.23;;;;;;;;;;5073443;28;20490;-61
2023/12/11 12:12:04;;;;;;;4.57;2.70;;;;;;;;;;5073325;28;20435;-60
2023/12/11 12:14:31;;;;;;;6.33;2.47;;;;;;;;;;5073532;28;20448;-60
2023/12/11 12:16:58;;;;;;;8.13;2.80;;;;;;;;;;5073433;28;20733;-57
2023/12/11 12:19:31;;;;;;;8.60;2.60;;;;;;;;;;5073485;28;20450;-60
2023/12/11 12:21:58;;;;;;;4.40;2.10;;;;;;;;;;5073223;28;20466;-60
2023/12/11 12:24:27;;;;;;;10.33;4.87;;;;;;;;;;5073293;28;20517;-62
2023/12/11 12:26:56;;;;;;;6.47;2.03;;;;;;;;;;5073326;28;20447;-62
2023/12/11 12:29:23;;;;;;;8.70;1.90;;;;;;;;;;5073163;28;20488;-59
2023/12/11 12:31:50;;;;;;;8.20;2.47;;;;;;;;;;5073021;28;21018;-62
2023/12/11 12:34:17;;;;;;;4.60;1.90;;;;;;;;;;5073327;28;20450;-61
2023/12/11 12:36:45;;;;;;;3.57;1.67;;;;;;;;;;5072906;28;20522;-61
2023/12/11 12:39:12;;;;;;;5.90;2.03;;;;;;;;;;5073020;28;20881;-61
2023/12/11 12:41:40;;;;;;;9.43;1.83;;;;;;;;;;5072853;28;20534;-60
2023/12/11 12:44:07;;;;;;;6.77;1.97;;;;;;;;;;5072950;28;20451;-63
2023/12/11 12:46:41;;;;;;;7.20;1.90;;;;;;;;;;5072977;28;20493;-63
2023/12/11 12:49:08;;;;;;;3.90;1.80;;;;;;;;;;5072850;28;20514;-61
2023/12/11 12:51:44;;;;;;;3.80;1.50;;;;;;;;;;5072993;28;20530;-61
2023/12/11 12:54:11;;;;;;;4.60;2.67;;;;;;;;;;5072574;28;20535;-59
2023/12/11 12:56:38;;;;;;;5.97;1.60;;;;;;;;;;5073010;28;20463;-60
2023/12/11 12:59:06;;;;;;;8.50;2.50;;;;;;;;;;5072856;28;20452;-61
2023/12/11 13:01:36;;;;;;;6.07;1.50;;;;;;;;;;5072941;28;20447;-59
2023/12/11 13:04:03;;;;;;;5.47;2.20;;;;;;;;;;5072946;28;20516;-60
2023/12/11 13:06:30;;;;;;;4.20;2.20;;;;;;;;;;5072983;28;20538;-60
2023/12/11 13:08:57;;;;;;;5.13;1.70;;;;;;;;;;5072888;28;20522;-61
2023/12/11 13:11:38;;;;;;;10.17;1.80;;;;;;;;;;5072830;28;20878;-60
2023/12/11 13:14:06;;;;;;;7.60;2.87;;;;;;;;;;5072771;28;20542;-62
2023/12/11 13:16:34;;;;;;;7.87;1.53;;;;;;;;;;5072608;28;20847;-61
2023/12/11 13:19:01;;;;;;;8.13;2.13;;;;;;;;;;5072797;28;20451;-61
2023/12/11 13:21:28;;;;;;;5.47;1.67;;;;;;;;;;5072671;28;20443;-61
2023/12/11 13:23:56;;;;;;;4.70;1.90;;;;;;;;;;5072683;28;20871;-59
2023/12/11 13:26:23;;;;;;;3.77;1.77;;;;;;;;;;5072563;28;20447;-59
2023/12/11 13:28:50;;;;;;;6.53;1.90;;;;;;;;;;5072179;28;20561;-60
2023/12/11 13:31:18;;;;;;;9.10;2.97;;;;;;;;;;5072831;28;20534;-60
2023/12/11 13:33:45;;;;;;;6.70;2.03;;;;;;;;;;5072650;28;20454;-60
2023/12/11 13:36:14;;;;;;;6.80;2.10;;;;;;;;;;5072610;28;20888;-60
2023/12/11 13:38:42;;;;;;;5.70;2.07;;;;;;;;;;5072544;28;20796;-60
2023/12/11 13:41:09;;;;;;;6.53;2.50;;;;;;;;;;5072487;28;20451;-59
2023/12/11 13:43:36;;;;;;;10.63;2.07;;;;;;;;;;5072533;28;20447;-60
2023/12/11 13:46:04;;;;;;;8.43;2.00;;;;;;;;;;5072207;28;20959;-57
2023/12/11 13:48:32;;;;;;;4.97;2.10;;;;;;;;;;5072338;28;20863;-58
2023/12/11 13:51:00;;;;;;;6.50;3.13;;;;;;;;;;5072352;28;20447;-61
2023/12/11 13:53:27;;;;;;;3.33;1.90;;;;;;;;;;5072401;28;20447;-61
2023/12/11 13:55:54;;;;;;;5.70;1.93;;;;;;;;;;5072256;28;20482;-61
2023/12/11 13:58:21;;;;;;;13.30;2.20;;;;;;;;;;5072495;28;20453;-61
2023/12/11 14:00:48;;;;;;;3.87;2.20;;;;;;;;;;5072360;28;20815;-61
2023/12/11 14:03:15;;;;;;;7.77;2.07;;;;;;;;;;5072134;28;20534;-61
2023/12/11 14:05:43;;;;;;;6.63;3.63;;;;;;;;;;5072611;28;20443;-60
2023/12/11 14:08:10;;;;;;;5.00;2.00;;;;;;;;;;5075789;28;20939;-62
2023/12/11 14:10:37;;;;;;;7.93;2.33;;;;;;;;;;5075500;28;20447;-61
2023/12/11 14:13:04;;;;;;;5.83;2.23;;;;;;;;;;5075833;28;20443;-61
2023/12/11 14:15:32;;;;;;;5.03;2.27;;;;;;;;;;5075706;28;20493;-60
2023/12/11 14:17:59;;;;;;;4.60;2.27;;;;;;;;;;5075686;28;20443;-61
2023/12/11 14:20:26;;;;;;;3.57;1.80;;;;;;;;;;5074904;28;20910;-60
2023/12/11 14:22:54;;;;;;;4.70;2.23;;;;;;;;;;5074659;28;20672;-61
2023/12/11 14:25:21;;;;;;;5.33;1.80;;;;;;;;;;5074518;28;20534;-61
2023/12/11 14:27:48;;;;;;;6.67;2.40;;;;;;;;;;5074556;28;20458;-61
2023/12/11 14:30:15;;;;;;;4.63;2.53;;;;;;;;;;5074373;28;20483;-61
2023/12/11 14:32:42;;;;;;;5.90;1.70;;;;;;;;;;5074886;28;20443;-61
2023/12/11 14:35:09;;;;;;;6.57;2.20;;;;;;;;;;5075296;28;20486;-60
2023/12/11 14:37:36;;;;;;;3.00;2.07;;;;;;;;;;5075189;28;20526;-61
2023/12/11 14:40:06;;;;;;;4.00;1.73;;;;;;;;;;5075446;28;20447;-60
2023/12/11 14:42:33;;;;;;;5.63;1.97;;;;;;;;;;5075330;28;20508;-61